createdAt,value
2023-06-09T00:01:00.460Z,16.26
2023-06-09T00:03:27.805Z,16.06
2023-06-09T00:05:54.826Z,16.05
2023-06-09T00:08:21.530Z,16.05
2023-06-09T00:10:48.402Z,16.07
2023-06-09T00:13:17.143Z,16.13
2023-06-09T00:15:43.901Z,16.21
2023-06-09T00:18:10.845Z,16.23
2023-06-09T00:20:37.558Z,16.20
2023-06-09T00:23:06.605Z,16.18
2023-06-09T00:25:34.078Z,16.22
2023-06-09T00:28:01.015Z,16.39
2023-06-09T00:30:38.026Z,16.33
2023-06-09T00:33:06.123Z,16.41
2023-06-09T00:35:33.027Z,16.44
2023-06-09T00:37:59.845Z,16.36
2023-06-09T00:40:26.547Z,16.33
2023-06-09T00:42:53.271Z,16.37
2023-06-09T00:45:20.245Z,16.26
2023-06-09T00:47:47.187Z,16.27
2023-06-09T00:50:16.694Z,16.23
2023-06-09T00:52:44.109Z,16.33
2023-06-09T00:55:15.663Z,16.40
2023-06-09T00:57:44.435Z,16.33
2023-06-09T01:00:15.609Z,16.46
2023-06-09T01:02:42.352Z,16.49
2023-06-09T01:05:10.873Z,16.49
2023-06-09T01:08:02.126Z,16.24
2023-06-09T01:10:53.163Z,16.15
2023-06-09T01:13:41.264Z,16.26
2023-06-09T01:16:18.220Z,16.31
2023-06-09T01:18:47.070Z,16.22
2023-06-09T01:21:14.355Z,16.21
2023-06-09T01:24:08.395Z,16.05
2023-06-09T01:26:35.606Z,15.98
2023-06-09T01:29:04.358Z,16.01
2023-06-09T01:31:32.502Z,16.10
2023-06-09T01:34:01.547Z,16.07
2023-06-09T01:36:30.241Z,15.94
2023-06-09T01:38:57.951Z,15.99
2023-06-09T01:41:26.687Z,15.90
2023-06-09T01:43:53.371Z,15.85
2023-06-09T01:46:20.142Z,15.85
2023-06-09T01:49:10.052Z,15.77
2023-06-09T01:51:37.653Z,15.65
2023-06-09T01:54:11.560Z,15.53
2023-06-09T01:56:48.581Z,15.44
2023-06-09T01:59:19.560Z,15.51
2023-06-09T02:01:48.725Z,15.45
2023-06-09T02:04:17.503Z,15.57
2023-06-09T02:06:44.707Z,15.63
2023-06-09T02:09:12.596Z,15.57
2023-06-09T02:11:39.313Z,15.49
2023-06-09T02:14:06.967Z,15.45
2023-06-09T02:16:33.723Z,15.37
2023-06-09T02:19:04.594Z,15.23
2023-06-09T02:21:34.209Z,15.21
2023-06-09T02:24:00.966Z,15.29
2023-06-09T02:26:27.920Z,15.35
2023-06-09T02:28:54.566Z,15.34
2023-06-09T02:31:21.963Z,15.53
2023-06-09T02:33:48.935Z,15.54
2023-06-09T02:36:15.721Z,15.39
2023-06-09T02:38:42.393Z,15.38
2023-06-09T02:41:09.149Z,15.34
2023-06-09T02:43:35.905Z,15.35
2023-06-09T02:46:02.673Z,15.31
2023-06-09T02:48:29.899Z,15.25
2023-06-09T02:50:56.572Z,15.29
2023-06-09T02:53:23.385Z,15.16
2023-06-09T02:55:50.325Z,15.16
2023-06-09T02:58:17.378Z,15.16
2023-06-09T03:00:46.169Z,15.30
2023-06-09T03:03:14.155Z,15.14
2023-06-09T03:05:45.451Z,15.32
2023-06-09T03:08:12.505Z,15.21
2023-06-09T03:10:39.264Z,15.06
2023-06-09T03:13:05.919Z,15.07
2023-06-09T03:15:33.216Z,15.04
2023-06-09T03:17:59.984Z,15.11
2023-06-09T03:20:27.014Z,15.23
2023-06-09T03:22:55.095Z,15.21
2023-06-09T03:25:21.898Z,15.32
2023-06-09T03:27:48.520Z,15.38
2023-06-09T03:30:15.281Z,15.37
2023-06-09T03:32:41.977Z,15.55
2023-06-09T03:35:09.151Z,15.48
2023-06-09T03:37:35.843Z,15.61
2023-06-09T03:40:02.558Z,15.51
2023-06-09T03:42:30.518Z,15.55
2023-06-09T03:44:59.946Z,15.52
2023-06-09T03:47:27.565Z,15.67
2023-06-09T03:49:57.238Z,15.67
2023-06-09T03:52:25.948Z,15.69
2023-06-09T03:54:52.776Z,15.67
2023-06-09T03:57:19.661Z,15.84
2023-06-09T03:59:46.346Z,15.84
2023-06-09T04:02:13.180Z,15.82
2023-06-09T04:04:39.992Z,15.64
2023-06-09T04:07:06.811Z,15.52
2023-06-09T04:09:35.475Z,15.58
2023-06-09T04:12:02.218Z,15.76
2023-06-09T04:14:31.961Z,15.86
2023-06-09T04:16:58.840Z,15.94
2023-06-09T04:19:25.620Z,15.96
2023-06-09T04:21:52.333Z,15.78
2023-06-09T04:24:19.667Z,15.74
2023-06-09T04:26:52.157Z,15.72
2023-06-09T04:29:19.033Z,16.00
2023-06-09T04:31:45.883Z,15.95
2023-06-09T04:34:14.292Z,15.91
2023-06-09T04:36:41.454Z,16.20
2023-06-09T04:39:09.257Z,16.19
2023-06-09T04:41:36.434Z,16.33
2023-06-09T04:44:07.154Z,16.48
2023-06-09T04:46:39.439Z,16.51
2023-06-09T04:49:15.534Z,16.67
2023-06-09T04:51:49.775Z,16.72
2023-06-09T04:54:30.302Z,16.68
2023-06-09T04:56:59.476Z,16.70
2023-06-09T04:59:26.465Z,16.78
2023-06-09T05:02:12.397Z,16.85
2023-06-09T05:04:39.640Z,17.08
2023-06-09T05:07:07.910Z,17.04
2023-06-09T05:09:35.498Z,17.26
2023-06-09T05:12:02.213Z,17.30
2023-06-09T05:14:31.961Z,17.27
2023-06-09T05:17:11.828Z,17.41
2023-06-09T05:19:51.472Z,17.44
2023-06-09T05:22:22.736Z,17.57
2023-06-09T05:24:57.209Z,17.85
2023-06-09T05:27:34.325Z,17.93
2023-06-09T05:30:01.106Z,18.06
2023-06-09T05:32:29.158Z,18.14
2023-06-09T05:34:59.225Z,18.33
2023-06-09T05:37:28.801Z,18.40
2023-06-09T05:39:58.552Z,18.29
2023-06-09T05:42:28.545Z,18.46
2023-06-09T05:44:55.659Z,18.35
2023-06-09T05:47:35.372Z,18.62
2023-06-09T05:50:02.156Z,18.70
2023-06-09T05:52:31.796Z,18.64
2023-06-09T05:55:01.648Z,18.74
2023-06-09T05:57:31.471Z,18.89
2023-06-09T05:59:58.921Z,18.70
2023-06-09T06:02:26.264Z,18.93
2023-06-09T06:04:53.402Z,19.12
2023-06-09T06:07:21.749Z,18.81
2023-06-09T06:09:50.698Z,18.82
2023-06-09T06:12:17.383Z,18.78
2023-06-09T06:14:49.079Z,18.92
2023-06-09T06:17:15.722Z,19.16
2023-06-09T06:19:42.379Z,19.31
2023-06-09T06:22:09.169Z,19.37
2023-06-09T06:24:36.495Z,19.43
2023-06-09T06:27:03.302Z,19.56
2023-06-09T06:29:31.793Z,19.68
2023-06-09T06:31:58.586Z,19.75
2023-06-09T06:34:26.322Z,19.75
2023-06-09T06:36:54.564Z,19.63
2023-06-09T06:39:21.953Z,19.74
2023-06-09T06:41:48.936Z,19.92
2023-06-09T06:44:16.105Z,20.20
2023-06-09T06:46:42.780Z,20.33
2023-06-09T06:49:09.506Z,20.38
2023-06-09T06:51:36.262Z,20.28
2023-06-09T06:54:04.778Z,20.32
2023-06-09T06:56:32.131Z,20.44
2023-06-09T06:58:58.798Z,20.64
2023-06-09T07:01:26.342Z,20.88
2023-06-09T07:03:56.760Z,21.10
2023-06-09T07:06:23.520Z,21.19
2023-06-09T07:08:51.752Z,21.29
2023-06-09T07:11:18.794Z,21.31
2023-06-09T07:13:45.736Z,21.27
2023-06-09T07:16:12.584Z,21.30
2023-06-09T07:18:39.344Z,21.43
2023-06-09T07:21:06.203Z,21.53
2023-06-09T07:23:33.067Z,21.62
2023-06-09T07:25:59.926Z,21.79
2023-06-09T07:28:27.380Z,21.70
2023-06-09T07:30:54.225Z,21.75
2023-06-09T07:33:21.127Z,21.74
2023-06-09T07:35:50.305Z,21.83
2023-06-09T07:38:18.275Z,21.98
2023-06-09T07:40:45.069Z,22.03
2023-06-09T07:43:11.887Z,22.09
2023-06-09T07:45:38.657Z,22.10
2023-06-09T07:48:05.520Z,22.29
2023-06-09T07:50:40.253Z,22.23
2023-06-09T07:53:17.929Z,22.37
2023-06-09T07:55:45.949Z,22.51
2023-06-09T07:58:12.863Z,22.47
2023-06-09T08:00:39.630Z,22.60
2023-06-09T08:03:06.398Z,22.59
2023-06-09T08:05:35.913Z,22.71
2023-06-09T08:08:04.437Z,22.66
2023-06-09T08:10:31.165Z,22.91
2023-06-09T08:12:58.645Z,22.99
2023-06-09T08:15:25.420Z,23.01
2023-06-09T08:17:52.093Z,23.06
2023-06-09T08:20:19.015Z,23.18
2023-06-09T08:22:45.825Z,23.03
2023-06-09T08:25:12.812Z,23.35
2023-06-09T08:27:39.521Z,23.03
2023-06-09T08:30:08.636Z,23.04
2023-06-09T08:32:36.695Z,23.37
2023-06-09T08:35:10.274Z,23.44
2023-06-09T08:37:37.902Z,23.39
2023-06-09T08:40:09.752Z,23.30
2023-06-09T08:42:38.948Z,23.51
2023-06-09T08:45:09.035Z,23.34
2023-06-09T08:47:38.048Z,23.53
2023-06-09T08:50:06.347Z,23.82
2023-06-09T08:52:35.886Z,23.69
2023-06-09T08:55:05.263Z,23.53
2023-06-09T08:57:33.118Z,23.74
2023-06-09T08:59:59.873Z,23.89
2023-06-09T09:02:26.681Z,23.91
2023-06-09T09:04:53.921Z,24.07
2023-06-09T09:07:20.923Z,24.12
2023-06-09T09:09:47.776Z,24.13
2023-06-09T09:12:14.879Z,24.15
2023-06-09T09:14:45.443Z,24.23
2023-06-09T09:17:14.301Z,24.28
2023-06-09T09:19:49.917Z,24.50
2023-06-09T09:22:17.292Z,24.47
2023-06-09T09:24:50.585Z,24.56
2023-06-09T09:27:17.856Z,24.51
2023-06-09T09:29:45.268Z,24.52
2023-06-09T09:32:12.112Z,24.61
2023-06-09T09:34:41.447Z,24.52
2023-06-09T09:37:12.910Z,24.54
2023-06-09T09:39:53.610Z,24.92
2023-06-09T09:42:21.771Z,25.27
2023-06-09T09:44:52.349Z,25.49
2023-06-09T09:47:19.894Z,25.62
2023-06-09T09:50:02.265Z,25.97
2023-06-09T09:52:29.973Z,25.92
2023-06-09T09:54:59.733Z,26.18
2023-06-09T09:57:30.551Z,26.27
2023-06-09T10:00:00.466Z,26.22
2023-06-09T10:02:31.645Z,26.15
2023-06-09T10:05:04.724Z,26.60
2023-06-09T10:07:36.217Z,26.71
2023-06-09T10:10:03.713Z,26.81
2023-06-09T10:12:30.976Z,26.68
2023-06-09T10:14:58.281Z,26.48
2023-06-09T10:17:27.926Z,26.45
2023-06-09T10:19:54.630Z,26.76
2023-06-09T10:22:22.498Z,26.89
2023-06-09T10:24:49.345Z,26.70
2023-06-09T10:27:16.003Z,26.52
2023-06-09T10:29:43.317Z,26.51
2023-06-09T10:32:15.238Z,26.22
2023-06-09T10:34:47.516Z,26.61
2023-06-09T10:37:14.259Z,26.66
2023-06-09T10:39:55.857Z,26.59
2023-06-09T10:42:43.875Z,27.05
2023-06-09T10:45:15.240Z,27.24
2023-06-09T10:47:50.693Z,27.50
2023-06-09T10:50:27.658Z,27.34
2023-06-09T10:52:59.082Z,27.24
2023-06-09T10:55:28.560Z,27.59
2023-06-09T10:57:56.657Z,27.57
2023-06-09T11:00:24.846Z,28.17
2023-06-09T11:02:53.769Z,28.36
2023-06-09T11:05:22.082Z,28.34
2023-06-09T11:07:53.942Z,28.43
2023-06-09T11:10:20.722Z,28.14
2023-06-09T11:12:48.472Z,28.07
2023-06-09T11:15:16.659Z,28.02
2023-06-09T11:17:47.964Z,27.92
2023-06-09T11:20:16.593Z,28.31
2023-06-09T11:22:43.818Z,28.40
2023-06-09T11:25:35.048Z,28.42
2023-06-09T11:28:08.227Z,28.89
2023-06-09T11:30:36.400Z,28.62
2023-06-09T11:33:06.652Z,29.22
2023-06-09T11:35:33.531Z,29.11
2023-06-09T11:38:06.696Z,28.99
2023-06-09T11:40:38.724Z,28.96
2023-06-09T11:43:10.263Z,29.15
2023-06-09T11:45:38.314Z,28.66
2023-06-09T11:48:07.724Z,28.81
2023-06-09T11:50:45.945Z,28.45
2023-06-09T11:53:15.645Z,28.15
2023-06-09T11:55:43.433Z,27.85
2023-06-09T11:58:11.596Z,27.95
2023-06-09T12:00:43.135Z,27.99
2023-06-09T12:03:11.472Z,28.07
2023-06-09T12:05:38.724Z,28.05
2023-06-09T12:08:12.506Z,28.25
2023-06-09T12:10:39.215Z,27.72
2023-06-09T12:13:05.953Z,27.54
2023-06-09T12:15:33.258Z,27.69
2023-06-09T12:18:04.484Z,27.76
2023-06-09T12:20:37.525Z,27.78
2023-06-09T12:23:09.551Z,27.63
2023-06-09T12:25:38.388Z,27.61
2023-06-09T12:28:27.716Z,27.68
2023-06-09T12:31:19.866Z,27.65
2023-06-09T12:33:50.746Z,27.46
2023-06-09T12:36:17.489Z,27.65
2023-06-09T12:38:47.193Z,27.82
2023-06-09T12:41:15.940Z,27.70
2023-06-09T12:43:57.623Z,27.58
2023-06-09T12:46:35.066Z,27.30
2023-06-09T12:49:10.391Z,27.27
2023-06-09T12:51:42.538Z,27.33
2023-06-09T12:54:12.621Z,27.22
2023-06-09T12:56:40.034Z,27.22
2023-06-09T12:59:07.754Z,27.16
2023-06-09T13:01:34.942Z,26.98
2023-06-09T13:04:02.229Z,26.91
2023-06-09T13:06:29.073Z,26.97
2023-06-09T13:08:57.139Z,27.01
2023-06-09T13:11:24.669Z,26.90
2023-06-09T13:13:53.090Z,26.90
2023-06-09T13:16:20.504Z,27.25
2023-06-09T13:18:47.459Z,27.23
2023-06-09T13:21:26.959Z,27.30
2023-06-09T13:24:03.244Z,27.23
2023-06-09T13:26:30.005Z,27.29
2023-06-09T13:28:56.829Z,27.26
2023-06-09T13:31:23.475Z,27.49
2023-06-09T13:33:50.154Z,27.75
2023-06-09T13:36:16.859Z,27.93
2023-06-09T13:38:43.555Z,28.06
2023-06-09T13:41:12.720Z,28.16
2023-06-09T13:43:41.785Z,28.59
2023-06-09T13:46:09.616Z,28.61
2023-06-09T13:48:39.492Z,28.68
2023-06-09T13:51:06.381Z,28.63
2023-06-09T13:53:39.581Z,28.68
2023-06-09T13:56:09.875Z,28.84
2023-06-09T13:58:40.176Z,28.92
2023-06-09T14:01:16.015Z,29.01
2023-06-09T14:03:46.213Z,28.91
2023-06-09T14:06:30.367Z,28.78
2023-06-09T14:09:00.763Z,28.71
2023-06-09T14:11:30.553Z,28.44
2023-06-09T14:14:12.671Z,28.30
2023-06-09T14:16:45.990Z,27.97
2023-06-09T14:19:17.544Z,27.65
2023-06-09T14:21:45.236Z,27.66
2023-06-09T14:24:14.750Z,27.45
2023-06-09T14:26:48.762Z,27.31
2023-06-09T14:29:27.402Z,27.05
2023-06-09T14:32:00.793Z,26.62
2023-06-09T14:34:31.257Z,26.48
2023-06-09T14:37:04.289Z,26.18
2023-06-09T14:39:37.159Z,25.75
2023-06-09T14:42:08.136Z,25.39
2023-06-09T14:44:34.828Z,25.12
2023-06-09T14:47:01.679Z,24.80
2023-06-09T14:49:44.286Z,24.65
2023-06-09T14:52:14.341Z,24.34
2023-06-09T14:54:45.669Z,24.18
2023-06-09T14:57:15.780Z,24.05
2023-06-09T14:59:42.510Z,23.93
2023-06-09T15:02:09.355Z,23.76
2023-06-09T15:04:36.110Z,23.61
2023-06-09T15:07:02.808Z,23.44
2023-06-09T15:09:29.434Z,23.34
2023-06-09T15:11:56.055Z,23.27
2023-06-09T15:14:22.954Z,23.14
2023-06-09T15:16:53.002Z,23.01
2023-06-09T15:19:23.212Z,23.02
2023-06-09T15:22:15.940Z,22.99
2023-06-09T15:25:22.016Z,22.74
2023-06-09T15:27:50.112Z,22.61
2023-06-09T15:30:21.086Z,22.57
2023-06-09T15:32:48.245Z,22.55
2023-06-09T15:35:18.617Z,22.55
2023-06-09T15:37:45.414Z,22.55
2023-06-09T15:40:37.729Z,22.50
2023-06-09T15:43:11.152Z,22.68
2023-06-09T15:45:42.800Z,22.51
2023-06-09T15:48:10.614Z,22.52
2023-06-09T15:50:38.490Z,22.62
2023-06-09T15:53:06.115Z,22.61
2023-06-09T15:55:33.971Z,22.46
2023-06-09T15:58:01.401Z,22.32
2023-06-09T16:00:28.191Z,22.30
2023-06-09T16:02:55.111Z,22.31
2023-06-09T16:05:21.803Z,22.33
2023-06-09T16:07:48.570Z,22.13
2023-06-09T16:10:15.300Z,22.10
2023-06-09T16:12:42.027Z,22.19
2023-06-09T16:15:11.849Z,21.93
2023-06-09T16:17:41.235Z,21.90
2023-06-09T16:20:08.208Z,21.56
2023-06-09T16:22:35.794Z,21.40
2023-06-09T16:25:02.451Z,21.38
2023-06-09T16:27:29.192Z,21.33
2023-06-09T16:29:55.995Z,21.33
2023-06-09T16:32:22.594Z,21.30
2023-06-09T16:34:49.465Z,21.22
2023-06-09T16:37:16.247Z,21.18
2023-06-09T16:39:43.132Z,21.16
2023-06-09T16:42:21.828Z,21.21
2023-06-09T16:44:56.669Z,21.20
2023-06-09T16:47:26.609Z,21.19
2023-06-09T16:49:54.207Z,20.98
2023-06-09T16:52:23.371Z,20.92
2023-06-09T16:54:50.386Z,20.85
2023-06-09T16:57:17.211Z,20.92
2023-06-09T16:59:43.895Z,20.91
2023-06-09T17:02:10.790Z,20.85
2023-06-09T17:04:40.060Z,20.83
2023-06-09T17:07:06.785Z,20.86
2023-06-09T17:09:36.461Z,20.83
2023-06-09T17:12:06.364Z,20.83
2023-06-09T17:14:33.184Z,20.82
2023-06-09T17:16:59.916Z,20.86
2023-06-09T17:19:27.346Z,20.84
2023-06-09T17:21:53.976Z,20.93
2023-06-09T17:24:21.219Z,20.87
2023-06-09T17:26:48.030Z,20.81
2023-06-09T17:29:17.885Z,20.84
2023-06-09T17:31:44.600Z,20.88
2023-06-09T17:34:16.382Z,20.77
2023-06-09T17:36:45.397Z,20.81
2023-06-09T17:39:12.080Z,20.83
2023-06-09T17:41:42.836Z,20.85
2023-06-09T17:44:09.564Z,20.72
2023-06-09T17:46:36.237Z,20.58
2023-06-09T17:49:02.876Z,20.51
2023-06-09T17:51:29.605Z,20.56
2023-06-09T17:53:58.370Z,20.47
2023-06-09T17:56:24.998Z,20.41
2023-06-09T17:58:52.423Z,20.27
2023-06-09T18:01:22.581Z,20.32
2023-06-09T18:03:49.362Z,20.32
2023-06-09T18:06:16.354Z,20.31
2023-06-09T18:08:46.130Z,20.23
2023-06-09T18:11:14.363Z,20.12
2023-06-09T18:13:44.660Z,20.04
2023-06-09T18:16:18.032Z,20.02
2023-06-09T18:18:56.697Z,19.97
2023-06-09T18:21:26.149Z,19.95
2023-06-09T18:23:53.020Z,19.92
2023-06-09T18:26:44.828Z,19.91
2023-06-09T18:29:18.437Z,19.85
2023-06-09T18:31:49.865Z,19.75
2023-06-09T18:34:16.486Z,19.71
2023-06-09T18:36:43.159Z,19.76
2023-06-09T18:39:10.270Z,19.79
2023-06-09T18:41:37.058Z,19.76
2023-06-09T18:44:16.475Z,19.73
2023-06-09T18:46:43.412Z,19.61
2023-06-09T18:49:10.151Z,19.60
2023-06-09T18:51:37.420Z,19.51
2023-06-09T18:54:05.248Z,19.51
2023-06-09T18:56:31.845Z,19.50
2023-06-09T18:58:59.499Z,19.54
2023-06-09T19:01:27.443Z,19.58
2023-06-09T19:03:54.247Z,19.57
2023-06-09T19:06:21.007Z,19.59
2023-06-09T19:08:48.020Z,19.50
2023-06-09T19:11:15.141Z,19.45
2023-06-09T19:13:41.871Z,19.32
2023-06-09T19:16:08.846Z,19.24
2023-06-09T19:18:59.026Z,19.12
2023-06-09T19:21:26.520Z,19.03
2023-06-09T19:23:56.095Z,18.95
2023-06-09T19:26:26.688Z,18.97
2023-06-09T19:29:00.131Z,18.95
2023-06-09T19:31:26.853Z,18.85
2023-06-09T19:33:53.676Z,18.76
2023-06-09T19:36:20.465Z,18.71
2023-06-09T19:38:47.273Z,18.74
2023-06-09T19:41:26.302Z,18.71
2023-06-09T19:43:52.923Z,18.67
2023-06-09T19:46:20.314Z,18.71
2023-06-09T19:48:47.393Z,18.62
2023-06-09T19:51:14.154Z,18.60
2023-06-09T19:53:40.908Z,18.57
2023-06-09T19:56:07.497Z,18.53
2023-06-09T19:58:34.196Z,18.56
2023-06-09T20:01:00.858Z,18.63
2023-06-09T20:03:28.397Z,18.71
2023-06-09T20:05:55.115Z,18.65
2023-06-09T20:08:21.818Z,18.50
2023-06-09T20:10:48.582Z,18.32
2023-06-09T20:13:16.823Z,18.22
2023-06-09T20:15:43.917Z,18.23
2023-06-09T20:18:10.875Z,18.20
2023-06-09T20:20:38.238Z,18.16
2023-06-09T20:23:09.952Z,18.12
2023-06-09T20:25:37.685Z,18.15
2023-06-09T20:28:04.582Z,18.24
2023-06-09T20:30:31.166Z,18.28
2023-06-09T20:32:57.925Z,18.34
2023-06-09T20:35:24.799Z,18.27
2023-06-09T20:37:53.390Z,18.13
2023-06-09T20:40:20.319Z,18.09
2023-06-09T20:42:47.279Z,18.06
2023-06-09T20:45:17.455Z,18.10
2023-06-09T20:47:45.315Z,17.98
2023-06-09T20:50:12.165Z,17.99
2023-06-09T20:52:38.947Z,17.89
2023-06-09T20:55:06.369Z,17.93
2023-06-09T20:57:33.172Z,17.99
2023-06-09T21:00:00.053Z,18.00
2023-06-09T21:02:28.972Z,17.92
2023-06-09T21:04:55.974Z,17.95
2023-06-09T21:07:23.440Z,17.97
2023-06-09T21:09:50.149Z,18.04
2023-06-09T21:12:16.887Z,17.96
2023-06-09T21:14:43.817Z,17.83
2023-06-09T21:17:10.740Z,17.62
2023-06-09T21:19:37.927Z,17.61
2023-06-09T21:22:04.813Z,17.61
2023-06-09T21:24:32.359Z,17.59
2023-06-09T21:26:59.123Z,17.55
2023-06-09T21:29:25.879Z,17.63
2023-06-09T21:31:52.593Z,17.66
2023-06-09T21:34:19.330Z,17.55
2023-06-09T21:36:46.018Z,17.51
2023-06-09T21:39:12.643Z,17.42
2023-06-09T21:41:39.353Z,17.45
2023-06-09T21:44:06.235Z,17.21
2023-06-09T21:46:32.839Z,17.18
2023-06-09T21:48:59.591Z,17.14
2023-06-09T21:51:26.622Z,16.98
2023-06-09T21:53:53.303Z,16.96
2023-06-09T21:56:19.986Z,16.83
2023-06-09T21:58:46.642Z,16.93
2023-06-09T22:01:13.371Z,16.98
2023-06-09T22:03:40.169Z,17.08
2023-06-09T22:06:07.615Z,17.09
2023-06-09T22:08:35.914Z,17.10
2023-06-09T22:11:04.226Z,17.11
2023-06-09T22:13:30.890Z,17.08
2023-06-09T22:15:57.478Z,17.10
2023-06-09T22:18:25.613Z,17.15
2023-06-09T22:20:53.621Z,17.15
2023-06-09T22:23:20.440Z,17.13
2023-06-09T22:25:47.160Z,17.04
2023-06-09T22:28:13.848Z,16.92
2023-06-09T22:30:40.587Z,16.85
2023-06-09T22:33:07.403Z,16.75
2023-06-09T22:35:34.147Z,16.69
2023-06-09T22:38:00.762Z,16.65
2023-06-09T22:40:27.348Z,16.62
2023-06-09T22:42:54.052Z,16.60
2023-06-09T22:45:21.103Z,16.62
2023-06-09T22:47:47.842Z,16.51
2023-06-09T22:50:15.091Z,16.53
2023-06-09T22:52:44.513Z,16.55
2023-06-09T22:55:13.058Z,16.56
2023-06-09T22:57:40.976Z,16.59
2023-06-09T23:00:10.150Z,16.61
2023-06-09T23:02:37.315Z,16.48
2023-06-09T23:05:09.829Z,16.45
2023-06-09T23:07:40.536Z,16.35
2023-06-09T23:10:08.593Z,16.38
2023-06-09T23:12:36.251Z,16.49
2023-06-09T23:15:07.699Z,16.53
2023-06-09T23:17:35.492Z,16.42
2023-06-09T23:20:04.033Z,16.40
2023-06-09T23:22:31.112Z,16.37
2023-06-09T23:24:57.794Z,16.40
2023-06-09T23:27:24.464Z,16.45
2023-06-09T23:29:51.190Z,16.46
2023-06-09T23:32:17.841Z,16.42
2023-06-09T23:34:44.709Z,16.40
2023-06-09T23:37:16.389Z,16.39
2023-06-09T23:39:43.103Z,16.38
2023-06-09T23:42:10.091Z,16.44
2023-06-09T23:44:36.705Z,16.23
2023-06-09T23:47:04.026Z,16.32
2023-06-09T23:49:30.705Z,16.34
2023-06-09T23:52:00.020Z,16.21
2023-06-09T23:54:26.711Z,16.21
2023-06-09T23:56:53.360Z,15.95
2023-06-09T23:59:20.439Z,15.87
